GOOYSBGL

Guest
Details From GOOY - Dakar Leopold Sedar Senghor Intl
To SBGL - Galeao Antonio Carlos Jombim
Flight Number -
Tags decoded
Created
Modified
Stats Distance 2,746 nm / 5,086 km
Max Altitude 0 ft / 0 m
Waypoints 8
Social Downloads 0
Likes 0
Share

Download

Looking for another format? Having issues loading an existing format? Contact us
Advertisement - Login to hide

Notes

Requested: GOOY BOMSA UA302 TAROT KODOS UL206 PAMOX UM661 LOBIK PORGA ADA SBGL Unmatched points: UL206 PAMOX UM661 LOBIK

Route

GOOY BOMSA UA302 TAROT KODOS PORGA ADA SBGL

ID Type Via Altitude (ft/m) Position (lat/lon) Dist (leg/tot) Name
O GOOY APT - 0 / 0 14.73971 / -17.49023 - / 0 nm Dakar Leopold Sedar Senghor Intl
BOMSA FIX - 0 / 0 13.96889 / -18.00000 54 / 54 nm
INIRO FIX UA302 (AWY-HI) 0 / 0 13.33194 / -18.42778 45 / 100 nm
TAROT FIX UA302 (AWY-HI) 0 / 0 11.46500 / -19.66667 133 / 234 nm
KODOS FIX - 0 / 0 1.20300 / -26.21700 729 / 963 nm
PORGA FIX - 0 / 0 -18.67933 / -38.24283 1389 / 2353 nm
ADA NDB - 0 / 0 -22.82296 / -42.09649 329 / 2682 nm ALDEIA NDB
O SBGL APT - 0 / 0 -22.80894 / -43.24368 63 / 2746 nm Galeao Antonio Carlos Jombim

Altitude Profile

Advertisement - Login to hide

Weather


0- 5 10 15 20 25 30 35+ Temperature / °C

Clouds and Precipitation
Forecast for 2020-12-04 18:00 UTC. Updated 4 hours ago

Ground ~20,000 ft ~40,000 ft Winds

GOOY

Details ICAO GOOY (DKR)
Name Dakar - Leopold Sedar Senghor Intl
Region Senegal
Timezone Africa/Dakar (UTC+0.0)
Stats Elevation 84 ft / 26 m (AMSL)
Location 14.740100° -17.490400°
Runways 2
Magnetic Variation 7.011° W

METAR

GOOY 041900Z 01012KT CAVOK 26/21 Q1013

Decode

TAF

TAF GOOY 041700Z 0418/0524 02013KT CAVOK= TAF GOBD 041700Z 0418/0524 36010KT CAVOK

Decode

Departure Runways

ID Width Length Bearing (true/mag) Surface Threshold Overrun Markings Lighting
03 98 ft / 30 m 4,916 ft / 1,498 m 22.33° / 29.34° ASPHALT 0 ft / 0 m 98 ft / 30 m APP
18 148 ft / 45 m 11,483 ft / 3,500 m 172.61° / 179.62° ASPHALT 525 ft / 160 m 220 ft / 67 m APP EDGE THRESHOLD
21 98 ft / 30 m 4,916 ft / 1,498 m 202.33° / 209.34° ASPHALT 0 ft / 0 m 1,591 ft / 485 m APP
36 148 ft / 45 m 11,483 ft / 3,500 m 352.61° / 359.62° ASPHALT 0 ft / 0 m 213 ft / 65 m PREC-APP EDGE THRESHOLD ALSF-I

SBGL

Details ICAO SBGL (GIG)
Name Galeao-Antonio Carlos Jobim Intl
Region Brazil
Timezone America/Sao_Paulo (UTC-2.0)
Stats Elevation 28 ft / 9 m (AMSL)
Location -22.808900° -43.243800°
Runways 2
Magnetic Variation 23.066° W

METAR

SBGL 041900Z 21016KT 9999 FEW030 32/18 Q1011

Decode

TAF

TAF SBGL 041500Z 0418/0524 20010KT 8000 FEW025TCU TX32/0418Z TN26/0507Z PROB30 0421/0423 TS SCT020 FEW025CB BECMG 0500/0502 27005KT SCT020 BECMG 0509/0511 20005KT PROB30 TEMPO 0512/0520 5000 RA BKN020 BECMG 0521/0523 16005KT SCT025 RMK PHD

Decode

Destination Runways

ID Width Length Bearing (true/mag) Surface Threshold Overrun Markings Lighting
10 148 ft / 45 m 13,136 ft / 4,004 m 74.40° / 97.46° CONCRETE 0 ft / 0 m 0 ft / 0 m PREC-APP CENTERLINE EDGE THRESHOLD ALSF-II TDZ REIL-OMNI
15 154 ft / 47 m 10,426 ft / 3,178 m 125.65° / 148.72° ASPHALT 0 ft / 0 m 184 ft / 56 m PREC-APP CENTERLINE EDGE THRESHOLD ALSF-I TDZ REIL-OMNI
28 148 ft / 45 m 13,136 ft / 4,004 m 254.38° / 277.45° CONCRETE 0 ft / 0 m 174 ft / 53 m PREC-APP CENTERLINE EDGE THRESHOLD ALSF-I TDZ REIL-OMNI
33 154 ft / 47 m 10,426 ft / 3,178 m 305.64° / 328.71° ASPHALT 0 ft / 0 m 184 ft / 56 m PREC-APP CENTERLINE EDGE THRESHOLD TDZ REIL-OMNI

Approach Navaids

Runway Type Ident Frequency Range Bearing (true/mag) Slope Elevation
10 LOC-ILS ITB 109.30 MHz 18 nm / 33 km 74.39° / 97.46 ° - 28 ft / 9 m (AMSL)
10 OM OM - - 74.39° / 97.45 ° - 28 ft / 9 m (AMSL)
10 IM IM - - 74.39° / 97.45 ° - 16 ft / 5 m (AMSL)
10 MM MM - - 74.39° / 97.45 ° - 16 ft / 5 m (AMSL)
10 GS ITB 109.30 MHz 10 nm / 19 km 74.39° / 97.46 ° 3.00° 28 ft / 9 m (AMSL)
15 GS IGL 110.30 MHz 10 nm / 19 km 125.65° / 148.72 ° 3.00° 28 ft / 9 m (AMSL)
15 DME IGL 110.30 MHz 18 nm / 33 km - - 17 ft / 5 m (AMSL)
15 LOC-ILS IGL 110.30 MHz 18 nm / 33 km 125.65° / 148.72 ° - 28 ft / 9 m (AMSL)
15 OM OM - - 125.78° / 148.85 ° - 56 ft / 17 m (AMSL)
28 GS ILM 111.50 MHz 10 nm / 19 km 254.39° / 277.46 ° 2.94° 28 ft / 9 m (AMSL)
28 DME ILM 111.50 MHz 18 nm / 33 km - - 28 ft / 9 m (AMSL)
28 LOC-ILS ILM 111.50 MHz 18 nm / 33 km 254.39° / 277.46 ° - 28 ft / 9 m (AMSL)

Popular Alternatives